EST,Max TemperatureF,Mean TemperatureF,Min TemperatureF,Max Dew PointF,MeanDew PointF,Min DewpointF,Max Humidity, Mean Humidity, Min Humidity, Max Sea Level PressureIn, Mean Sea Level PressureIn, Min Sea Level PressureIn, Max VisibilityMiles, Mean VisibilityMiles, Min VisibilityMiles, Max Wind SpeedMPH, Mean Wind SpeedMPH, Max Gust SpeedMPH,PrecipitationIn, CloudCover, Events, WindDirDegrees
2012-12-1,41,32,24,37,29,19,93,87,73,30.41,30.31,30.15,10,8,6,23,17,30,0.00,8,,54
2012-12-2,50,44,37,50,44,39,100,94,76,30.12,29.97,29.87,9,4,1,15,8,,0.31,8,Rain,230
2012-12-3,46,40,35,45,40,36,100,91,70,30.23,30.17,30.03,10,7,1,17,7,18,0.00,5,,342
2012-12-4,53,48,43,50,46,39,100,92,76,30.03,29.92,29.87,10,5,1,18,10,24,0.12,7,Rain,227
2012-12-5,37,32,28,37,24,14,76,64,44,30.42,30.26,29.97,10,9,5,20,13,30,0.00,6,Rain-Snow,318
2012-12-6,39,31,23,30,23,16,75,69,54,30.43,30.27,30.03,10,9,9,13,7,,0.00,4,,90
2012-12-7,44,40,35,41,38,30,100,89,75,30.02,29.96,29.92,10,6,2,8,4,,0.03,8,Rain,145
2012-12-8,43,38,33,43,38,25,100,88,70,30.17,29.89,29.81,10,6,2,16,8,30,0.12,8,Rain,3
2012-12-9,39,32,26,39,31,12,100,87,39,30.32,30.01,29.76,10,7,2,34,19,44,0.20,8,Rain-Snow,68
2012-12-10,42,38,33,41,38,21,100,89,60,29.78,29.59,29.51,10,6,2,17,10,23,0.02,8,Rain,307
2012-12-11,33,28,24,27,22,17,86,74,59,30.15,30.02,29.80,10,9,9,13,8,20,0.00,7,Snow,263
2012-12-12,40,35,30,30,27,23,81,70,52,30.41,30.30,30.17,10,9,9,20,16,23,0.00,4,,247
2012-12-13,44,37,30,34,31,28,87,76,61,30.42,30.35,30.17,10,9,9,17,10,24,0.00,2,,227
2012-12-14,45,40,35,32,30,28,81,68,44,30.28,30.20,30.14,10,9,9,17,13,,0.00,1,,272
2012-12-15,38,34,30,36,33,28,93,88,75,30.29,30.17,29.96,10,9,9,30,14,37,0.00,7,Rain,69
2012-12-16,48,42,35,45,40,36,100,92,85,29.95,29.76,29.67,10,6,2,28,19,36,0.16,8,Rain,72
2012-12-17,46,44,42,43,42,39,100,93,81,29.73,29.67,29.60,9,6,2,12,6,,0.00,8,,225
2012-12-18,47,43,37,39,35,24,87,74,36,29.75,29.59,29.52,10,9,9,20,9,26,0.00,7,Rain,316
2012-12-19,45,39,33,32,29,27,87,71,43,30.19,29.97,29.75,10,9,9,10,7,,0.00,4,,307
2012-12-20,41,38,34,39,33,25,93,80,54,30.18,29.70,29.35,10,8,2,30,15,41,0.12,7,Rain,85
2012-12-21,38,35,32,41,32,23,93,84,69,29.44,29.30,29.23,10,9,4,29,14,44,0.02,8,Rain-Snow,286
2012-12-22,36,32,28,27,23,18,86,70,35,29.93,29.66,29.45,10,7,2,34,20,43,0.00,7,Snow,296
2012-12-23,37,32,28,28,23,16,80,67,48,30.01,29.91,29.79,10,9,9,22,17,29,0.00,8,Rain-Snow,262
2012-12-24,37,32,28,27,23,19,75,65,53,30.05,29.98,29.91,10,9,9,20,12,25,0.00,6,Snow,284
2012-12-25,34,32,30,28,25,19,93,76,49,30.35,30.08,29.94,10,7,1,15,10,18,0.00,8,Rain-Snow,32
2012-12-26,27,25,23,25,19,14,93,76,50,30.36,30.10,29.87,10,6,1,24,15,34,0.00,8,Snow,42
2012-12-27,27,24,21,21,20,16,93,81,66,30.09,29.90,29.82,10,5,1,17,12,24,0.00,7,Snow,349
2012-12-28,28,24,21,23,20,16,86,81,67,30.17,30.12,30.06,10,8,2,13,7,17,0.00,7,Snow,329
2012-12-29,28,26,24,25,23,19,93,85,64,30.04,29.86,29.76,10,5,1,18,10,21,0.00,8,Snow,360
2012-12-30,32,26,21,25,18,14,80,68,44,30.25,30.15,29.89,10,9,9,24,12,23,0.00,7,Snow,268
2012-12-31,35,30,25,28,25,19,86,75,58,30.19,29.94,29.85,10,8,5,24,19,30,0.02,7,Rain,257